Terminal Aerodrome Forecast
Issued by NWS

Home | Current Version | Previous Version | Text Only | Print | Product List | Glossary On
Versions: 1 2 3 4 5 6 7 8 9 10 11 12
000
FTUS44 KBMX 250520
TAFTOI
TAF
KTOI 250520Z 2506/2606 14004KT P6SM BKN050 OVC100
     FM250900 13007KT P6SM OVC020
     FM251500 25010KT P6SM SHRA VCTS BKN025CB BKN100
     FM260300 22008KT P6SM BKN150=

USA.gov is the U.S. government's official web portal to all federal, state and local government web resources and services.